sensor_id;sensor_type;location;lat;lon;timestamp;temperature;humidity
3330;DHT22;1677;49.576;10.990;2022-11-20T00:00:55;1.40;99.90
3330;DHT22;1677;49.576;10.990;2022-11-20T00:03:21;1.40;99.90
3330;DHT22;1677;49.576;10.990;2022-11-20T00:05:46;1.40;99.90
3330;DHT22;1677;49.576;10.990;2022-11-20T00:08:12;1.40;99.90
3330;DHT22;1677;49.576;10.990;2022-11-20T00:10:41;1.60;99.90
3330;DHT22;1677;49.576;10.990;2022-11-20T00:13:07;1.80;99.90
3330;DHT22;1677;49.576;10.990;2022-11-20T00:15:33;1.70;99.90
3330;DHT22;1677;49.576;10.990;2022-11-20T00:17:58;1.60;99.90
3330;DHT22;1677;49.576;10.990;2022-11-20T00:20:24;1.50;99.90
3330;DHT22;1677;49.576;10.990;2022-11-20T00:22:50;1.40;99.90
3330;DHT22;1677;49.576;10.990;2022-11-20T00:25:16;1.20;99.90
3330;DHT22;1677;49.576;10.990;2022-11-20T00:27:42;1.20;99.90
3330;DHT22;1677;49.576;10.990;2022-11-20T00:30:08;1.20;99.90
3330;DHT22;1677;49.576;10.990;2022-11-20T00:32:33;1.30;99.90
3330;DHT22;1677;49.576;10.990;2022-11-20T00:34:59;1.40;99.90
3330;DHT22;1677;49.576;10.990;2022-11-20T00:37:24;1.50;99.90
3330;DHT22;1677;49.576;10.990;2022-11-20T00:39:50;1.40;99.90
3330;DHT22;1677;49.576;10.990;2022-11-20T00:42:15;1.40;99.90
3330;DHT22;1677;49.576;10.990;2022-11-20T00:44:41;1.40;99.90
3330;DHT22;1677;49.576;10.990;2022-11-20T00:47:06;1.50;99.90
3330;DHT22;1677;49.576;10.990;2022-11-20T00:49:32;1.70;99.90
3330;DHT22;1677;49.576;10.990;2022-11-20T00:51:57;1.70;99.90
3330;DHT22;1677;49.576;10.990;2022-11-20T00:54:23;1.50;99.90
3330;DHT22;1677;49.576;10.990;2022-11-20T00:56:49;1.40;99.90
3330;DHT22;1677;49.576;10.990;2022-11-20T00:59:14;1.40;99.90
3330;DHT22;1677;49.576;10.990;2022-11-20T01:01:40;1.60;99.90
3330;DHT22;1677;49.576;10.990;2022-11-20T01:04:05;1.50;99.90
3330;DHT22;1677;49.576;10.990;2022-11-20T01:06:34;1.40;99.90
3330;DHT22;1677;49.576;10.990;2022-11-20T01:09:09;1.40;99.90
3330;DHT22;1677;49.576;10.990;2022-11-20T01:11:38;1.60;99.90
3330;DHT22;1677;49.576;10.990;2022-11-20T01:14:05;1.70;99.90
3330;DHT22;1677;49.576;10.990;2022-11-20T01:16:34;1.50;99.90
3330;DHT22;1677;49.576;10.990;2022-11-20T01:19:03;1.60;99.90
3330;DHT22;1677;49.576;10.990;2022-11-20T01:21:34;1.60;99.90
3330;DHT22;1677;49.576;10.990;2022-11-20T01:24:01;1.90;99.90
3330;DHT22;1677;49.576;10.990;2022-11-20T01:26:29;1.80;99.90
3330;DHT22;1677;49.576;10.990;2022-11-20T01:28:55;1.80;99.90
3330;DHT22;1677;49.576;10.990;2022-11-20T01:31:25;1.80;99.90
3330;DHT22;1677;49.576;10.990;2022-11-20T01:33:54;1.70;99.90
3330;DHT22;1677;49.576;10.990;2022-11-20T01:36:22;1.80;99.90
3330;DHT22;1677;49.576;10.990;2022-11-20T01:38:50;1.70;99.90
3330;DHT22;1677;49.576;10.990;2022-11-20T01:41:16;1.60;99.90
3330;DHT22;1677;49.576;10.990;2022-11-20T01:44:01;1.60;99.90
3330;DHT22;1677;49.576;10.990;2022-11-20T01:46:27;1.50;99.90
3330;DHT22;1677;49.576;10.990;2022-11-20T01:49:04;1.70;99.90
3330;DHT22;1677;49.576;10.990;2022-11-20T01:51:53;1.80;99.90
3330;DHT22;1677;49.576;10.990;2022-11-20T01:54:29;1.90;99.90
3330;DHT22;1677;49.576;10.990;2022-11-20T01:56:57;1.90;99.90
3330;DHT22;1677;49.576;10.990;2022-11-20T01:59:25;1.80;99.90
3330;DHT22;1677;49.576;10.990;2022-11-20T02:01:52;1.90;99.90
3330;DHT22;1677;49.576;10.990;2022-11-20T02:04:18;1.80;99.90
3330;DHT22;1677;49.576;10.990;2022-11-20T02:06:47;1.90;99.90
3330;DHT22;1677;49.576;10.990;2022-11-20T02:09:14;1.70;99.90
3330;DHT22;1677;49.576;10.990;2022-11-20T02:11:40;1.70;99.90
3330;DHT22;1677;49.576;10.990;2022-11-20T02:14:06;1.60;99.90
3330;DHT22;1677;49.576;10.990;2022-11-20T02:16:35;1.70;99.90
3330;DHT22;1677;49.576;10.990;2022-11-20T02:19:02;1.70;99.90
3330;DHT22;1677;49.576;10.990;2022-11-20T02:22:37;1.70;99.90
3330;DHT22;1677;49.576;10.990;2022-11-20T02:24:29;1.70;99.90
3330;DHT22;1677;49.576;10.990;2022-11-20T02:27:15;1.90;99.90
3330;DHT22;1677;49.576;10.990;2022-11-20T02:34:54;2.00;99.90
3330;DHT22;1677;49.576;10.990;2022-11-20T02:37:21;2.10;99.90
3330;DHT22;1677;49.576;10.990;2022-11-20T02:39:48;2.20;99.90
3330;DHT22;1677;49.576;10.990;2022-11-20T02:42:14;2.00;99.90
3330;DHT22;1677;49.576;10.990;2022-11-20T02:44:40;1.90;99.90
3330;DHT22;1677;49.576;10.990;2022-11-20T02:47:05;1.70;99.90
3330;DHT22;1677;49.576;10.990;2022-11-20T02:49:31;1.70;99.90
3330;DHT22;1677;49.576;10.990;2022-11-20T02:51:57;1.70;99.90
3330;DHT22;1677;49.576;10.990;2022-11-20T02:54:23;1.70;99.90
3330;DHT22;1677;49.576;10.990;2022-11-20T02:56:48;1.80;99.90
3330;DHT22;1677;49.576;10.990;2022-11-20T02:59:14;1.90;99.90
3330;DHT22;1677;49.576;10.990;2022-11-20T03:01:39;1.90;99.90
3330;DHT22;1677;49.576;10.990;2022-11-20T03:04:05;1.80;99.90
3330;DHT22;1677;49.576;10.990;2022-11-20T03:06:31;1.70;99.90
3330;DHT22;1677;49.576;10.990;2022-11-20T03:08:56;1.70;99.90
3330;DHT22;1677;49.576;10.990;2022-11-20T03:11:22;1.70;99.90
3330;DHT22;1677;49.576;10.990;2022-11-20T03:13:48;1.60;99.90
3330;DHT22;1677;49.576;10.990;2022-11-20T03:16:16;1.70;99.90
3330;DHT22;1677;49.576;10.990;2022-11-20T03:18:42;1.60;99.90
3330;DHT22;1677;49.576;10.990;2022-11-20T03:21:09;1.70;99.90
3330;DHT22;1677;49.576;10.990;2022-11-20T03:23:36;1.70;99.90
3330;DHT22;1677;49.576;10.990;2022-11-20T03:26:28;1.80;99.90
3330;DHT22;1677;49.576;10.990;2022-11-20T03:28:55;1.80;99.90
3330;DHT22;1677;49.576;10.990;2022-11-20T03:31:41;1.70;99.90
3330;DHT22;1677;49.576;10.990;2022-11-20T03:34:08;1.70;99.90
3330;DHT22;1677;49.576;10.990;2022-11-20T03:36:34;1.60;99.90
3330;DHT22;1677;49.576;10.990;2022-11-20T03:39:00;1.40;99.90
3330;DHT22;1677;49.576;10.990;2022-11-20T03:41:28;1.30;99.90
3330;DHT22;1677;49.576;10.990;2022-11-20T03:44:02;1.30;99.90
3330;DHT22;1677;49.576;10.990;2022-11-20T03:46:29;1.40;99.90
3330;DHT22;1677;49.576;10.990;2022-11-20T03:48:54;1.40;99.90
3330;DHT22;1677;49.576;10.990;2022-11-20T03:51:22;1.30;99.90
3330;DHT22;1677;49.576;10.990;2022-11-20T03:53:49;1.40;99.90
3330;DHT22;1677;49.576;10.990;2022-11-20T03:56:17;1.40;99.90
3330;DHT22;1677;49.576;10.990;2022-11-20T03:58:43;1.50;99.90
3330;DHT22;1677;49.576;10.990;2022-11-20T04:01:11;1.40;99.90
3330;DHT22;1677;49.576;10.990;2022-11-20T04:03:38;1.40;99.90
3330;DHT22;1677;49.576;10.990;2022-11-20T04:06:06;1.50;99.90
3330;DHT22;1677;49.576;10.990;2022-11-20T04:08:32;1.30;99.90
3330;DHT22;1677;49.576;10.990;2022-11-20T04:11:17;1.40;99.90
3330;DHT22;1677;49.576;10.990;2022-11-20T04:13:47;1.50;99.90
3330;DHT22;1677;49.576;10.990;2022-11-20T04:16:14;1.50;99.90
3330;DHT22;1677;49.576;10.990;2022-11-20T04:18:39;1.40;99.90
3330;DHT22;1677;49.576;10.990;2022-11-20T04:21:06;1.40;99.90
3330;DHT22;1677;49.576;10.990;2022-11-20T04:23:31;1.40;99.90
3330;DHT22;1677;49.576;10.990;2022-11-20T04:26:09;1.40;99.90
3330;DHT22;1677;49.576;10.990;2022-11-20T04:28:35;1.50;99.90
3330;DHT22;1677;49.576;10.990;2022-11-20T04:31:09;1.70;99.90
3330;DHT22;1677;49.576;10.990;2022-11-20T04:33:36;1.80;99.90
3330;DHT22;1677;49.576;10.990;2022-11-20T04:36:04;1.80;99.90
3330;DHT22;1677;49.576;10.990;2022-11-20T04:38:29;1.70;99.90
3330;DHT22;1677;49.576;10.990;2022-11-20T04:40:59;1.70;99.90
3330;DHT22;1677;49.576;10.990;2022-11-20T04:43:25;1.60;99.90
3330;DHT22;1677;49.576;10.990;2022-11-20T04:45:52;1.60;99.90
3330;DHT22;1677;49.576;10.990;2022-11-20T04:48:18;1.50;99.90
3330;DHT22;1677;49.576;10.990;2022-11-20T04:50:43;1.50;99.90
3330;DHT22;1677;49.576;10.990;2022-11-20T04:53:09;1.60;99.90
3330;DHT22;1677;49.576;10.990;2022-11-20T04:55:34;1.70;99.90
3330;DHT22;1677;49.576;10.990;2022-11-20T04:58:00;1.60;99.90
3330;DHT22;1677;49.576;10.990;2022-11-20T05:00:25;1.60;99.90
3330;DHT22;1677;49.576;10.990;2022-11-20T05:02:51;1.80;99.90
3330;DHT22;1677;49.576;10.990;2022-11-20T05:05:16;2.00;99.90
3330;DHT22;1677;49.576;10.990;2022-11-20T05:07:42;2.00;99.90
3330;DHT22;1677;49.576;10.990;2022-11-20T05:10:08;2.00;99.90
3330;DHT22;1677;49.576;10.990;2022-11-20T05:12:33;1.70;99.90
3330;DHT22;1677;49.576;10.990;2022-11-20T05:14:59;1.70;99.90
3330;DHT22;1677;49.576;10.990;2022-11-20T05:17:24;1.70;99.90
3330;DHT22;1677;49.576;10.990;2022-11-20T05:19:50;1.80;99.90
3330;DHT22;1677;49.576;10.990;2022-11-20T05:22:15;1.80;99.90
3330;DHT22;1677;49.576;10.990;2022-11-20T05:24:41;1.90;99.90
3330;DHT22;1677;49.576;10.990;2022-11-20T05:27:06;2.10;99.90
3330;DHT22;1677;49.576;10.990;2022-11-20T05:29:32;2.00;99.90
3330;DHT22;1677;49.576;10.990;2022-11-20T05:31:58;2.00;99.90
3330;DHT22;1677;49.576;10.990;2022-11-20T05:34:23;1.90;99.90
3330;DHT22;1677;49.576;10.990;2022-11-20T05:36:49;1.80;99.90
3330;DHT22;1677;49.576;10.990;2022-11-20T05:39:14;1.80;99.90
3330;DHT22;1677;49.576;10.990;2022-11-20T05:41:40;1.70;99.90
3330;DHT22;1677;49.576;10.990;2022-11-20T05:44:05;1.70;99.90
3330;DHT22;1677;49.576;10.990;2022-11-20T05:46:31;1.80;99.90
3330;DHT22;1677;49.576;10.990;2022-11-20T05:48:57;1.90;99.90
3330;DHT22;1677;49.576;10.990;2022-11-20T05:51:24;2.10;99.90
3330;DHT22;1677;49.576;10.990;2022-11-20T05:53:49;2.10;99.90
3330;DHT22;1677;49.576;10.990;2022-11-20T05:56:17;2.00;99.90
3330;DHT22;1677;49.576;10.990;2022-11-20T05:58:44;1.80;99.90
3330;DHT22;1677;49.576;10.990;2022-11-20T06:01:15;1.70;99.90
3330;DHT22;1677;49.576;10.990;2022-11-20T06:03:42;1.70;99.90
3330;DHT22;1677;49.576;10.990;2022-11-20T06:06:09;1.60;99.90
3330;DHT22;1677;49.576;10.990;2022-11-20T06:08:35;1.70;99.90
3330;DHT22;1677;49.576;10.990;2022-11-20T06:11:08;1.70;99.90
3330;DHT22;1677;49.576;10.990;2022-11-20T06:13:35;1.70;99.90
3330;DHT22;1677;49.576;10.990;2022-11-20T06:16:00;1.70;99.90
3330;DHT22;1677;49.576;10.990;2022-11-20T06:18:27;1.70;99.90
3330;DHT22;1677;49.576;10.990;2022-11-20T06:21:11;1.70;99.90
3330;DHT22;1677;49.576;10.990;2022-11-20T06:23:37;1.70;99.90
3330;DHT22;1677;49.576;10.990;2022-11-20T06:26:05;1.70;99.90
3330;DHT22;1677;49.576;10.990;2022-11-20T06:28:31;1.80;99.90
3330;DHT22;1677;49.576;10.990;2022-11-20T06:30:57;1.80;99.90
3330;DHT22;1677;49.576;10.990;2022-11-20T06:33:22;1.90;99.90
3330;DHT22;1677;49.576;10.990;2022-11-20T06:35:48;1.80;99.90
3330;DHT22;1677;49.576;10.990;2022-11-20T06:38:13;1.80;99.90
3330;DHT22;1677;49.576;10.990;2022-11-20T06:40:42;1.80;99.90
3330;DHT22;1677;49.576;10.990;2022-11-20T06:43:09;1.80;99.90
3330;DHT22;1677;49.576;10.990;2022-11-20T06:45:35;1.70;99.90
3330;DHT22;1677;49.576;10.990;2022-11-20T06:48:01;1.90;99.90
3330;DHT22;1677;49.576;10.990;2022-11-20T06:50:27;2.00;99.90
3330;DHT22;1677;49.576;10.990;2022-11-20T06:52:52;1.90;99.90
3330;DHT22;1677;49.576;10.990;2022-11-20T06:55:18;1.90;99.90
3330;DHT22;1677;49.576;10.990;2022-11-20T06:57:43;1.90;99.90
3330;DHT22;1677;49.576;10.990;2022-11-20T07:00:09;1.90;99.90
3330;DHT22;1677;49.576;10.990;2022-11-20T07:02:35;2.00;99.90
3330;DHT22;1677;49.576;10.990;2022-11-20T07:05:01;2.00;99.90
3330;DHT22;1677;49.576;10.990;2022-11-20T07:07:26;1.90;99.90
3330;DHT22;1677;49.576;10.990;2022-11-20T07:09:52;1.90;99.90
3330;DHT22;1677;49.576;10.990;2022-11-20T07:12:17;1.90;99.90
3330;DHT22;1677;49.576;10.990;2022-11-20T07:14:43;2.10;99.90
3330;DHT22;1677;49.576;10.990;2022-11-20T07:17:08;2.20;99.90
3330;DHT22;1677;49.576;10.990;2022-11-20T07:19:34;2.40;99.90
3330;DHT22;1677;49.576;10.990;2022-11-20T07:21:59;2.50;99.90
3330;DHT22;1677;49.576;10.990;2022-11-20T07:24:25;2.60;99.90
3330;DHT22;1677;49.576;10.990;2022-11-20T07:26:50;2.40;99.90
3330;DHT22;1677;49.576;10.990;2022-11-20T07:29:17;2.40;99.90
3330;DHT22;1677;49.576;10.990;2022-11-20T07:31:42;2.20;99.90
3330;DHT22;1677;49.576;10.990;2022-11-20T07:34:08;2.30;99.90
3330;DHT22;1677;49.576;10.990;2022-11-20T07:36:34;2.30;99.90
3330;DHT22;1677;49.576;10.990;2022-11-20T07:39:00;2.30;99.90
3330;DHT22;1677;49.576;10.990;2022-11-20T07:41:25;2.30;99.90
3330;DHT22;1677;49.576;10.990;2022-11-20T07:43:51;2.20;99.90
3330;DHT22;1677;49.576;10.990;2022-11-20T07:46:17;2.20;99.90
3330;DHT22;1677;49.576;10.990;2022-11-20T07:48:42;2.20;99.90
3330;DHT22;1677;49.576;10.990;2022-11-20T07:51:08;2.30;99.90
3330;DHT22;1677;49.576;10.990;2022-11-20T07:53:33;2.10;99.90
3330;DHT22;1677;49.576;10.990;2022-11-20T07:56:00;2.10;99.90
3330;DHT22;1677;49.576;10.990;2022-11-20T07:58:26;2.20;99.90
3330;DHT22;1677;49.576;10.990;2022-11-20T08:00:53;2.20;99.90
3330;DHT22;1677;49.576;10.990;2022-11-20T08:03:19;2.30;99.90
3330;DHT22;1677;49.576;10.990;2022-11-20T08:05:45;2.20;99.90
3330;DHT22;1677;49.576;10.990;2022-11-20T08:08:10;2.20;99.90
3330;DHT22;1677;49.576;10.990;2022-11-20T08:10:36;2.20;99.90
3330;DHT22;1677;49.576;10.990;2022-11-20T08:13:01;2.50;99.90
3330;DHT22;1677;49.576;10.990;2022-11-20T08:15:50;2.50;99.90
3330;DHT22;1677;49.576;10.990;2022-11-20T08:18:19;2.60;99.90
3330;DHT22;1677;49.576;10.990;2022-11-20T08:20:44;2.60;99.90
3330;DHT22;1677;49.576;10.990;2022-11-20T08:23:11;2.60;99.90
3330;DHT22;1677;49.576;10.990;2022-11-20T08:25:37;2.50;99.90
3330;DHT22;1677;49.576;10.990;2022-11-20T08:28:08;2.30;99.90
3330;DHT22;1677;49.576;10.990;2022-11-20T08:30:35;2.30;99.90
3330;DHT22;1677;49.576;10.990;2022-11-20T08:33:06;2.40;99.90
3330;DHT22;1677;49.576;10.990;2022-11-20T08:35:36;2.50;99.90
3330;DHT22;1677;49.576;10.990;2022-11-20T08:38:04;2.50;99.90
3330;DHT22;1677;49.576;10.990;2022-11-20T08:40:30;2.50;99.90
3330;DHT22;1677;49.576;10.990;2022-11-20T08:42:56;2.70;99.90
3330;DHT22;1677;49.576;10.990;2022-11-20T08:45:22;2.90;99.90
3330;DHT22;1677;49.576;10.990;2022-11-20T08:47:47;2.70;99.90
3330;DHT22;1677;49.576;10.990;2022-11-20T08:50:14;2.60;99.90
3330;DHT22;1677;49.576;10.990;2022-11-20T08:52:40;2.50;99.90
3330;DHT22;1677;49.576;10.990;2022-11-20T08:55:07;2.50;99.90
3330;DHT22;1677;49.576;10.990;2022-11-20T08:57:36;2.60;99.90
3330;DHT22;1677;49.576;10.990;2022-11-20T09:00:04;2.50;99.90
3330;DHT22;1677;49.576;10.990;2022-11-20T09:02:30;2.50;99.90
3330;DHT22;1677;49.576;10.990;2022-11-20T09:04:57;2.60;99.90
3330;DHT22;1677;49.576;10.990;2022-11-20T09:07:23;2.50;99.90
3330;DHT22;1677;49.576;10.990;2022-11-20T09:09:48;2.50;99.90
3330;DHT22;1677;49.576;10.990;2022-11-20T09:12:14;2.50;99.90
3330;DHT22;1677;49.576;10.990;2022-11-20T09:14:39;2.40;99.90
3330;DHT22;1677;49.576;10.990;2022-11-20T09:17:05;2.50;99.90
3330;DHT22;1677;49.576;10.990;2022-11-20T09:19:33;2.40;99.90
3330;DHT22;1677;49.576;10.990;2022-11-20T09:21:58;2.50;99.90
3330;DHT22;1677;49.576;10.990;2022-11-20T09:24:25;2.50;99.90
3330;DHT22;1677;49.576;10.990;2022-11-20T09:26:51;2.50;99.90
3330;DHT22;1677;49.576;10.990;2022-11-20T09:29:16;2.40;99.90
3330;DHT22;1677;49.576;10.990;2022-11-20T09:31:42;2.60;99.90
3330;DHT22;1677;49.576;10.990;2022-11-20T09:34:08;2.70;99.90
3330;DHT22;1677;49.576;10.990;2022-11-20T09:36:33;2.60;99.90
3330;DHT22;1677;49.576;10.990;2022-11-20T09:38:59;2.80;99.90
3330;DHT22;1677;49.576;10.990;2022-11-20T09:41:54;2.90;99.90
3330;DHT22;1677;49.576;10.990;2022-11-20T09:44:49;3.00;99.90
3330;DHT22;1677;49.576;10.990;2022-11-20T09:54:56;3.00;99.90
3330;DHT22;1677;49.576;10.990;2022-11-20T09:57:35;3.10;99.90
3330;DHT22;1677;49.576;10.990;2022-11-20T10:00:04;3.20;99.90
3330;DHT22;1677;49.576;10.990;2022-11-20T10:05:18;3.00;99.90
3330;DHT22;1677;49.576;10.990;2022-11-20T10:08:35;3.00;99.90
3330;DHT22;1677;49.576;10.990;2022-11-20T10:10:47;3.20;99.90
3330;DHT22;1677;49.576;10.990;2022-11-20T10:13:40;3.20;99.90
3330;DHT22;1677;49.576;10.990;2022-11-20T10:16:21;3.20;99.90
3330;DHT22;1677;49.576;10.990;2022-11-20T10:22:06;3.30;99.90
3330;DHT22;1677;49.576;10.990;2022-11-20T10:24:56;3.10;99.90
3330;DHT22;1677;49.576;10.990;2022-11-20T10:27:42;3.10;99.90
3330;DHT22;1677;49.576;10.990;2022-11-20T10:30:15;3.00;99.90
3330;DHT22;1677;49.576;10.990;2022-11-20T10:32:59;3.00;99.90
3330;DHT22;1677;49.576;10.990;2022-11-20T10:35:35;2.90;99.90
3330;DHT22;1677;49.576;10.990;2022-11-20T10:38:14;3.00;99.90
3330;DHT22;1677;49.576;10.990;2022-11-20T10:40:44;3.00;99.90
3330;DHT22;1677;49.576;10.990;2022-11-20T10:43:17;2.90;99.90
3330;DHT22;1677;49.576;10.990;2022-11-20T10:46:00;3.10;99.90
3330;DHT22;1677;49.576;10.990;2022-11-20T10:48:28;3.10;99.90
3330;DHT22;1677;49.576;10.990;2022-11-20T10:51:21;3.10;99.90
3330;DHT22;1677;49.576;10.990;2022-11-20T10:56:38;3.00;99.90
3330;DHT22;1677;49.576;10.990;2022-11-20T10:59:10;2.90;99.90
3330;DHT22;1677;49.576;10.990;2022-11-20T11:01:43;3.10;99.90
3330;DHT22;1677;49.576;10.990;2022-11-20T11:04:36;3.30;99.90
3330;DHT22;1677;49.576;10.990;2022-11-20T11:09:53;3.70;99.90
3330;DHT22;1677;49.576;10.990;2022-11-20T11:12:29;3.80;99.90
3330;DHT22;1677;49.576;10.990;2022-11-20T11:14:56;3.50;99.90
3330;DHT22;1677;49.576;10.990;2022-11-20T11:17:32;3.40;99.90
3330;DHT22;1677;49.576;10.990;2022-11-20T11:22:48;3.70;99.90
3330;DHT22;1677;49.576;10.990;2022-11-20T11:25:27;3.60;99.90
3330;DHT22;1677;49.576;10.990;2022-11-20T11:27:55;3.50;99.90
3330;DHT22;1677;49.576;10.990;2022-11-20T11:30:23;3.60;99.90
3330;DHT22;1677;49.576;10.990;2022-11-20T11:32:49;3.80;99.90
3330;DHT22;1677;49.576;10.990;2022-11-20T11:35:28;4.30;99.90
3330;DHT22;1677;49.576;10.990;2022-11-20T11:38:11;4.70;99.90
3330;DHT22;1677;49.576;10.990;2022-11-20T11:40:39;5.20;99.90
3330;DHT22;1677;49.576;10.990;2022-11-20T11:43:16;5.20;99.90
3330;DHT22;1677;49.576;10.990;2022-11-20T11:46:02;5.10;99.90
3330;DHT22;1677;49.576;10.990;2022-11-20T11:48:28;5.20;99.90
3330;DHT22;1677;49.576;10.990;2022-11-20T11:50:54;5.40;99.90
3330;DHT22;1677;49.576;10.990;2022-11-20T11:53:26;6.00;99.90
3330;DHT22;1677;49.576;10.990;2022-11-20T11:56:03;6.60;99.90
3330;DHT22;1677;49.576;10.990;2022-11-20T11:58:46;6.80;99.90
3330;DHT22;1677;49.576;10.990;2022-11-20T12:01:32;7.20;99.90
3330;DHT22;1677;49.576;10.990;2022-11-20T12:06:51;6.80;99.90
3330;DHT22;1677;49.576;10.990;2022-11-20T12:09:20;6.50;99.90
3330;DHT22;1677;49.576;10.990;2022-11-20T12:12:10;6.30;99.90
3330;DHT22;1677;49.576;10.990;2022-11-20T12:14:42;6.20;99.90
3330;DHT22;1677;49.576;10.990;2022-11-20T12:17:13;5.70;99.90
3330;DHT22;1677;49.576;10.990;2022-11-20T12:19:39;5.40;99.90
3330;DHT22;1677;49.576;10.990;2022-11-20T12:25:17;4.30;99.90
3330;DHT22;1677;49.576;10.990;2022-11-20T12:36:49;4.20;99.90
3330;DHT22;1677;49.576;10.990;2022-11-20T12:39:31;4.40;99.90
3330;DHT22;1677;49.576;10.990;2022-11-20T12:42:21;4.50;99.90
3330;DHT22;1677;49.576;10.990;2022-11-20T13:04:32;4.60;99.90
3330;DHT22;1677;49.576;10.990;2022-11-20T13:07:06;4.70;99.90
3330;DHT22;1677;49.576;10.990;2022-11-20T13:09:42;4.50;99.90
3330;DHT22;1677;49.576;10.990;2022-11-20T13:12:46;4.50;99.90
3330;DHT22;1677;49.576;10.990;2022-11-20T13:18:00;4.40;99.90
3330;DHT22;1677;49.576;10.990;2022-11-20T13:20:27;4.40;99.90
3330;DHT22;1677;49.576;10.990;2022-11-20T13:22:55;4.50;99.90
3330;DHT22;1677;49.576;10.990;2022-11-20T13:27:53;4.50;99.90
3330;DHT22;1677;49.576;10.990;2022-11-20T13:30:23;4.50;99.90
3330;DHT22;1677;49.576;10.990;2022-11-20T13:38:12;4.50;99.90
3330;DHT22;1677;49.576;10.990;2022-11-20T13:40:56;4.50;99.90
3330;DHT22;1677;49.576;10.990;2022-11-20T13:43:40;4.40;99.90
3330;DHT22;1677;49.576;10.990;2022-11-20T13:46:08;4.40;99.90
3330;DHT22;1677;49.576;10.990;2022-11-20T13:48:41;4.30;99.90
3330;DHT22;1677;49.576;10.990;2022-11-20T13:54:21;4.20;99.90
3330;DHT22;1677;49.576;10.990;2022-11-20T13:59:55;4.20;99.90
3330;DHT22;1677;49.576;10.990;2022-11-20T14:02:25;4.10;99.90
3330;DHT22;1677;49.576;10.990;2022-11-20T14:04:59;4.30;99.90
3330;DHT22;1677;49.576;10.990;2022-11-20T14:07:31;4.40;99.90
3330;DHT22;1677;49.576;10.990;2022-11-20T14:09:58;4.40;99.90
3330;DHT22;1677;49.576;10.990;2022-11-20T14:12:31;4.40;99.90
3330;DHT22;1677;49.576;10.990;2022-11-20T14:14:57;4.30;99.90
3330;DHT22;1677;49.576;10.990;2022-11-20T14:17:34;4.20;99.90
3330;DHT22;1677;49.576;10.990;2022-11-20T14:20:21;4.20;99.90
3330;DHT22;1677;49.576;10.990;2022-11-20T14:22:52;4.20;99.90
3330;DHT22;1677;49.576;10.990;2022-11-20T14:25:19;4.10;99.90
3330;DHT22;1677;49.576;10.990;2022-11-20T14:27:56;4.20;99.90
3330;DHT22;1677;49.576;10.990;2022-11-20T14:30:25;4.10;99.90
3330;DHT22;1677;49.576;10.990;2022-11-20T14:32:54;4.20;99.90
3330;DHT22;1677;49.576;10.990;2022-11-20T14:35:26;4.20;99.90
3330;DHT22;1677;49.576;10.990;2022-11-20T14:37:52;4.20;99.90
3330;DHT22;1677;49.576;10.990;2022-11-20T14:40:26;4.30;99.90
3330;DHT22;1677;49.576;10.990;2022-11-20T14:42:52;4.20;99.90
3330;DHT22;1677;49.576;10.990;2022-11-20T14:45:18;4.20;99.90
3330;DHT22;1677;49.576;10.990;2022-11-20T14:47:45;4.10;99.90
3330;DHT22;1677;49.576;10.990;2022-11-20T14:50:20;4.00;99.90
3330;DHT22;1677;49.576;10.990;2022-11-20T14:52:55;4.10;99.90
3330;DHT22;1677;49.576;10.990;2022-11-20T14:55:38;4.00;99.90
3330;DHT22;1677;49.576;10.990;2022-11-20T14:58:27;4.00;99.90
3330;DHT22;1677;49.576;10.990;2022-11-20T15:00:58;4.10;99.90
3330;DHT22;1677;49.576;10.990;2022-11-20T15:03:34;3.90;99.90
3330;DHT22;1677;49.576;10.990;2022-11-20T15:06:00;3.80;99.90
3330;DHT22;1677;49.576;10.990;2022-11-20T15:08:26;3.90;99.90
3330;DHT22;1677;49.576;10.990;2022-11-20T15:10:53;4.10;99.90
3330;DHT22;1677;49.576;10.990;2022-11-20T15:13:38;4.10;99.90
3330;DHT22;1677;49.576;10.990;2022-11-20T15:16:17;4.10;99.90
3330;DHT22;1677;49.576;10.990;2022-11-20T15:18:43;4.30;99.90
3330;DHT22;1677;49.576;10.990;2022-11-20T15:21:14;4.40;99.90
3330;DHT22;1677;49.576;10.990;2022-11-20T15:23:40;4.30;99.90
3330;DHT22;1677;49.576;10.990;2022-11-20T15:26:07;4.20;99.90
3330;DHT22;1677;49.576;10.990;2022-11-20T15:28:35;4.20;99.90
3330;DHT22;1677;49.576;10.990;2022-11-20T15:31:03;4.10;99.90
3330;DHT22;1677;49.576;10.990;2022-11-20T15:33:30;4.20;99.90
3330;DHT22;1677;49.576;10.990;2022-11-20T15:35:55;4.30;99.90
3330;DHT22;1677;49.576;10.990;2022-11-20T15:38:21;4.30;99.90
3330;DHT22;1677;49.576;10.990;2022-11-20T15:40:46;4.30;99.90
3330;DHT22;1677;49.576;10.990;2022-11-20T15:43:12;4.10;99.90
3330;DHT22;1677;49.576;10.990;2022-11-20T15:46:09;4.10;99.90
3330;DHT22;1677;49.576;10.990;2022-11-20T15:48:42;4.20;99.90
3330;DHT22;1677;49.576;10.990;2022-11-20T15:51:24;4.40;99.90
3330;DHT22;1677;49.576;10.990;2022-11-20T15:53:50;4.30;99.90
3330;DHT22;1677;49.576;10.990;2022-11-20T15:56:15;4.10;99.90
3330;DHT22;1677;49.576;10.990;2022-11-20T15:58:41;3.90;99.90
3330;DHT22;1677;49.576;10.990;2022-11-20T16:01:15;3.80;99.90
3330;DHT22;1677;49.576;10.990;2022-11-20T16:03:41;3.70;99.90
3330;DHT22;1677;49.576;10.990;2022-11-20T16:06:07;3.90;99.90
3330;DHT22;1677;49.576;10.990;2022-11-20T16:08:33;3.90;99.90
3330;DHT22;1677;49.576;10.990;2022-11-20T16:10:59;3.90;99.90
3330;DHT22;1677;49.576;10.990;2022-11-20T16:13:24;3.90;99.90
3330;DHT22;1677;49.576;10.990;2022-11-20T16:16:21;4.00;99.90
3330;DHT22;1677;49.576;10.990;2022-11-20T16:18:48;4.00;99.90
3330;DHT22;1677;49.576;10.990;2022-11-20T16:21:13;4.00;99.90
3330;DHT22;1677;49.576;10.990;2022-11-20T16:23:40;3.90;99.90
3330;DHT22;1677;49.576;10.990;2022-11-20T16:26:10;4.10;99.90
3330;DHT22;1677;49.576;10.990;2022-11-20T16:28:36;4.20;99.90
3330;DHT22;1677;49.576;10.990;2022-11-20T16:31:12;4.10;99.90
3330;DHT22;1677;49.576;10.990;2022-11-20T16:33:39;4.10;99.90
3330;DHT22;1677;49.576;10.990;2022-11-20T16:36:12;4.00;99.90
3330;DHT22;1677;49.576;10.990;2022-11-20T16:38:38;4.00;99.90
3330;DHT22;1677;49.576;10.990;2022-11-20T16:41:04;3.90;99.90
3330;DHT22;1677;49.576;10.990;2022-11-20T16:43:30;3.90;99.90
3330;DHT22;1677;49.576;10.990;2022-11-20T16:45:56;3.80;99.90
3330;DHT22;1677;49.576;10.990;2022-11-20T16:48:22;3.80;99.90
3330;DHT22;1677;49.576;10.990;2022-11-20T16:50:50;3.90;99.90
3330;DHT22;1677;49.576;10.990;2022-11-20T16:53:17;4.20;99.90
3330;DHT22;1677;49.576;10.990;2022-11-20T16:55:43;4.20;99.90
3330;DHT22;1677;49.576;10.990;2022-11-20T16:58:09;4.20;99.90
3330;DHT22;1677;49.576;10.990;2022-11-20T17:00:39;4.30;99.90
3330;DHT22;1677;49.576;10.990;2022-11-20T17:03:06;4.30;99.90
3330;DHT22;1677;49.576;10.990;2022-11-20T17:05:32;4.20;99.90
3330;DHT22;1677;49.576;10.990;2022-11-20T17:07:59;4.20;99.90
3330;DHT22;1677;49.576;10.990;2022-11-20T17:10:24;4.10;99.90
3330;DHT22;1677;49.576;10.990;2022-11-20T17:12:50;4.10;99.90
3330;DHT22;1677;49.576;10.990;2022-11-20T17:15:16;4.10;99.90
3330;DHT22;1677;49.576;10.990;2022-11-20T17:17:41;4.30;99.90
3330;DHT22;1677;49.576;10.990;2022-11-20T17:20:07;4.30;99.90
3330;DHT22;1677;49.576;10.990;2022-11-20T17:22:33;4.40;99.90
3330;DHT22;1677;49.576;10.990;2022-11-20T17:24:59;4.40;99.90
3330;DHT22;1677;49.576;10.990;2022-11-20T17:27:24;4.20;99.90
3330;DHT22;1677;49.576;10.990;2022-11-20T17:29:51;4.20;99.90
3330;DHT22;1677;49.576;10.990;2022-11-20T17:32:19;4.00;99.90
3330;DHT22;1677;49.576;10.990;2022-11-20T17:34:45;3.80;99.90